createdAt,value
2023-05-17T00:00:54.507Z,86.12
2023-05-17T00:03:21.145Z,86.00
2023-05-17T00:05:47.794Z,86.10
2023-05-17T00:08:14.356Z,84.88
2023-05-17T00:10:40.886Z,86.20
2023-05-17T00:13:07.442Z,83.92
2023-05-17T00:15:36.226Z,81.15
2023-05-17T00:18:02.770Z,86.44
2023-05-17T00:20:29.503Z,87.27
2023-05-17T00:22:56.190Z,86.65
2023-05-17T00:25:22.783Z,85.76
2023-05-17T00:27:49.264Z,86.38
2023-05-17T00:30:15.881Z,86.91
2023-05-17T00:32:42.407Z,87.12
2023-05-17T00:35:09.346Z,88.74
2023-05-17T00:37:35.943Z,87.94
2023-05-17T00:40:03.656Z,88.62
2023-05-17T00:42:30.584Z,86.39
2023-05-17T00:44:57.325Z,81.32
2023-05-17T00:47:24.136Z,86.18
2023-05-17T00:49:51.585Z,86.02
2023-05-17T00:52:18.208Z,87.99
2023-05-17T00:54:46.592Z,89.71
2023-05-17T00:57:13.337Z,90.74
2023-05-17T00:59:43.773Z,85.41
2023-05-17T01:02:11.750Z,87.23
2023-05-17T01:04:38.827Z,88.27
2023-05-17T01:07:05.425Z,88.87
2023-05-17T01:09:32.086Z,89.16
2023-05-17T01:12:36.195Z,87.66
2023-05-17T01:15:14.821Z,88.41
2023-05-17T01:17:52.219Z,86.72
2023-05-17T01:20:21.657Z,85.15
2023-05-17T01:23:10.191Z,88.35
2023-05-17T01:26:00.621Z,87.92
2023-05-17T01:28:28.266Z,88.45
2023-05-17T01:30:57.539Z,89.28
2023-05-17T01:33:24.382Z,89.54
2023-05-17T01:35:51.320Z,89.82
2023-05-17T01:38:17.857Z,89.07
2023-05-17T01:40:52.332Z,92.23
2023-05-17T01:43:47.797Z,92.09
2023-05-17T01:46:32.147Z,90.57
2023-05-17T01:49:18.212Z,91.22
2023-05-17T01:51:51.846Z,92.18
2023-05-17T01:54:23.106Z,96.36
2023-05-17T01:56:57.608Z,95.89
2023-05-17T01:59:25.552Z,94.96
2023-05-17T02:02:06.352Z,95.83
2023-05-17T02:04:33.274Z,94.58
2023-05-17T02:06:59.889Z,94.64
2023-05-17T02:09:26.398Z,96.39
2023-05-17T02:11:52.971Z,94.61
2023-05-17T02:14:19.519Z,95.37
2023-05-17T02:16:46.138Z,96.70
2023-05-17T02:19:13.456Z,98.32
2023-05-17T02:21:39.984Z,96.69
2023-05-17T02:24:06.936Z,96.49
2023-05-17T02:26:33.839Z,95.89
2023-05-17T02:29:00.433Z,96.11
2023-05-17T02:31:27.024Z,95.72
2023-05-17T02:33:54.546Z,96.27
2023-05-17T02:36:21.824Z,97.66
2023-05-17T02:38:48.396Z,95.99
2023-05-17T02:41:14.867Z,98.13
2023-05-17T02:43:41.944Z,99.52
2023-05-17T02:46:08.457Z,96.85
2023-05-17T02:48:35.035Z,96.49
2023-05-17T02:51:01.587Z,99.10
2023-05-17T02:53:28.092Z,95.12
2023-05-17T02:55:57.998Z,100.00
2023-05-17T02:58:25.458Z,95.86
2023-05-17T03:00:52.199Z,96.14
2023-05-17T03:03:18.914Z,99.24
2023-05-17T03:05:45.613Z,98.64
2023-05-17T03:08:12.119Z,98.55
2023-05-17T03:10:38.675Z,98.33
2023-05-17T03:13:06.185Z,100.00
2023-05-17T03:15:32.720Z,98.80
2023-05-17T03:17:59.273Z,100.00
2023-05-17T03:20:26.033Z,99.46
2023-05-17T03:22:52.804Z,99.65
2023-05-17T03:25:20.956Z,100.00
2023-05-17T03:27:47.494Z,99.49
2023-05-17T03:30:14.256Z,98.36
2023-05-17T03:32:41.142Z,100.00
2023-05-17T03:35:08.399Z,100.00
2023-05-17T03:37:35.079Z,100.00
2023-05-17T03:40:01.595Z,100.00
2023-05-17T03:42:28.109Z,100.00
2023-05-17T03:44:54.665Z,99.96
2023-05-17T03:47:24.002Z,100.00
2023-05-17T03:49:50.762Z,100.00
2023-05-17T03:52:17.324Z,100.00
2023-05-17T03:54:44.221Z,100.00
2023-05-17T03:57:11.443Z,100.00
2023-05-17T03:59:38.017Z,100.00
2023-05-17T04:02:05.215Z,100.00
2023-05-17T04:04:31.750Z,100.00
2023-05-17T04:06:58.534Z,100.00
2023-05-17T04:09:25.613Z,100.00
2023-05-17T04:11:52.164Z,100.00
2023-05-17T04:14:19.242Z,100.00
2023-05-17T04:16:46.044Z,100.00
2023-05-17T04:19:12.911Z,100.00
2023-05-17T04:21:39.986Z,100.00
2023-05-17T04:24:06.840Z,100.00
2023-05-17T04:26:33.413Z,100.00
2023-05-17T04:29:00.037Z,100.00
2023-05-17T04:31:26.565Z,100.00
2023-05-17T04:33:53.170Z,100.00
2023-05-17T04:36:19.720Z,100.00
2023-05-17T04:38:46.515Z,100.00
2023-05-17T04:41:13.093Z,100.00
2023-05-17T04:43:39.870Z,100.00
2023-05-17T04:46:07.176Z,100.00
2023-05-17T04:48:33.914Z,100.00
2023-05-17T04:51:02.378Z,99.35
2023-05-17T04:53:28.972Z,97.41
2023-05-17T04:55:55.542Z,91.84
2023-05-17T04:58:24.327Z,86.82
2023-05-17T05:00:52.164Z,79.65
2023-05-17T05:03:19.054Z,78.49
2023-05-17T05:05:45.775Z,74.42
2023-05-17T05:08:12.358Z,71.19
2023-05-17T05:10:38.890Z,67.78
2023-05-17T05:13:06.045Z,66.74
2023-05-17T05:15:32.925Z,67.76
2023-05-17T05:17:59.493Z,67.37
2023-05-17T05:20:27.917Z,65.12
2023-05-17T05:22:54.913Z,63.18
2023-05-17T05:25:21.584Z,62.53
2023-05-17T05:27:48.129Z,63.45
2023-05-17T05:30:21.993Z,61.62
2023-05-17T05:32:52.169Z,59.76
2023-05-17T05:35:19.214Z,60.92
2023-05-17T05:37:46.082Z,59.60
2023-05-17T05:40:13.207Z,57.90
2023-05-17T05:42:39.751Z,56.81
2023-05-17T05:45:07.093Z,57.70
2023-05-17T05:47:33.641Z,58.29
2023-05-17T05:50:01.265Z,57.04
2023-05-17T05:52:27.845Z,55.59
2023-05-17T05:54:55.384Z,53.75
2023-05-17T05:57:21.935Z,54.44
2023-05-17T05:59:48.508Z,53.57
2023-05-17T06:02:15.063Z,53.78
2023-05-17T06:04:45.634Z,53.93
2023-05-17T06:07:13.708Z,52.70
2023-05-17T06:09:40.447Z,52.77
2023-05-17T06:12:07.091Z,52.48
2023-05-17T06:14:33.798Z,52.94
2023-05-17T06:17:00.412Z,55.55
2023-05-17T06:19:27.016Z,57.72
2023-05-17T06:21:53.678Z,58.40
2023-05-17T06:24:20.272Z,59.20
2023-05-17T06:26:49.627Z,60.91
2023-05-17T06:29:16.181Z,61.82
2023-05-17T06:31:42.681Z,61.92
2023-05-17T06:34:09.266Z,61.36
2023-05-17T06:36:36.661Z,63.34
2023-05-17T06:39:04.959Z,63.74
2023-05-17T06:41:31.530Z,63.98
2023-05-17T06:43:58.043Z,61.78
2023-05-17T06:46:24.579Z,62.09
2023-05-17T06:48:51.453Z,63.29
2023-05-17T06:51:18.301Z,62.91
2023-05-17T06:53:44.896Z,62.58
2023-05-17T06:56:11.467Z,63.41
2023-05-17T06:58:37.981Z,62.21
2023-05-17T07:01:04.767Z,59.83
2023-05-17T07:03:31.391Z,58.71
2023-05-17T07:05:58.212Z,57.73
2023-05-17T07:08:24.762Z,56.78
2023-05-17T07:10:52.513Z,54.43
2023-05-17T07:13:19.211Z,56.68
2023-05-17T07:15:46.472Z,56.51
2023-05-17T07:18:13.174Z,55.84
2023-05-17T07:20:40.025Z,55.91
2023-05-17T07:23:06.519Z,57.39
2023-05-17T07:25:33.283Z,56.85
2023-05-17T07:27:59.903Z,56.69
2023-05-17T07:30:27.791Z,56.04
2023-05-17T07:32:54.478Z,56.79
2023-05-17T07:35:21.951Z,55.95
2023-05-17T07:37:50.876Z,57.93
2023-05-17T07:40:18.520Z,57.35
2023-05-17T07:42:45.002Z,56.71
2023-05-17T07:45:11.683Z,56.44
2023-05-17T07:47:38.368Z,58.07
2023-05-17T07:50:06.030Z,57.26
2023-05-17T07:52:32.622Z,58.17
2023-05-17T07:54:59.206Z,59.31
2023-05-17T07:57:27.302Z,58.67
2023-05-17T07:59:53.805Z,58.64
2023-05-17T08:02:20.580Z,59.65
2023-05-17T08:04:53.009Z,58.24
2023-05-17T08:07:19.598Z,59.41
2023-05-17T08:09:47.141Z,58.72
2023-05-17T08:12:13.640Z,59.87
2023-05-17T08:14:40.436Z,59.44
2023-05-17T08:17:06.935Z,59.86
2023-05-17T08:19:33.671Z,58.78
2023-05-17T08:22:00.294Z,59.20
2023-05-17T08:24:26.804Z,59.70
2023-05-17T08:26:53.381Z,59.36
2023-05-17T08:29:19.972Z,58.72
2023-05-17T08:31:46.583Z,59.38
2023-05-17T08:34:13.238Z,57.59
2023-05-17T08:36:39.901Z,58.48
2023-05-17T08:39:08.293Z,55.70
2023-05-17T08:41:37.331Z,56.12
2023-05-17T08:44:06.487Z,56.75
2023-05-17T08:46:35.048Z,56.49
2023-05-17T08:49:05.136Z,55.78
2023-05-17T08:51:32.787Z,56.51
2023-05-17T08:54:00.499Z,56.29
2023-05-17T08:56:29.123Z,56.41
2023-05-17T08:58:57.858Z,55.96
2023-05-17T09:01:26.866Z,56.13
2023-05-17T09:03:54.441Z,56.37
2023-05-17T09:06:22.263Z,55.59
2023-05-17T09:08:52.894Z,55.81
2023-05-17T09:11:28.166Z,56.23
2023-05-17T09:13:58.999Z,56.66
2023-05-17T09:16:26.512Z,56.11
2023-05-17T09:18:59.957Z,56.24
2023-05-17T09:21:27.566Z,55.73
2023-05-17T09:24:05.613Z,56.27
2023-05-17T09:26:44.988Z,55.72
2023-05-17T09:29:13.183Z,56.06
2023-05-17T09:31:40.886Z,56.85
2023-05-17T09:34:08.544Z,55.69
2023-05-17T09:36:37.510Z,56.27
2023-05-17T09:39:06.205Z,54.60
2023-05-17T09:41:40.702Z,55.80
2023-05-17T09:44:11.716Z,55.92
2023-05-17T09:46:41.956Z,56.09
2023-05-17T09:49:09.450Z,55.56
2023-05-17T09:51:37.555Z,55.66
2023-05-17T09:54:06.736Z,55.73
2023-05-17T09:56:35.015Z,55.60
2023-05-17T09:59:02.660Z,56.06
2023-05-17T10:01:31.892Z,57.86
2023-05-17T10:04:02.792Z,56.64
2023-05-17T10:06:44.567Z,57.54
2023-05-17T10:09:17.041Z,57.15
2023-05-17T10:11:46.887Z,55.88
2023-05-17T10:14:19.155Z,55.74
2023-05-17T10:16:45.984Z,56.95
2023-05-17T10:19:14.177Z,55.97
2023-05-17T10:21:43.283Z,55.80
2023-05-17T10:24:12.007Z,56.32
2023-05-17T10:26:39.387Z,55.29
2023-05-17T10:29:07.138Z,55.21
2023-05-17T10:31:34.744Z,56.67
2023-05-17T10:36:29.838Z,55.98
2023-05-17T10:38:56.919Z,54.23
2023-05-17T10:41:26.439Z,55.24
2023-05-17T10:43:54.481Z,54.85
2023-05-17T10:46:23.491Z,54.64
2023-05-17T10:48:54.241Z,55.56
2023-05-17T10:51:27.093Z,54.58
2023-05-17T10:54:02.675Z,53.07
2023-05-17T10:56:33.594Z,54.56
2023-05-17T10:59:28.025Z,55.41
2023-05-17T11:02:07.407Z,54.25
2023-05-17T11:04:38.247Z,53.65
2023-05-17T11:07:17.306Z,54.43
2023-05-17T11:09:45.348Z,52.65
2023-05-17T11:12:13.380Z,53.08
2023-05-17T11:14:46.072Z,53.74
2023-05-17T11:17:18.289Z,51.95
2023-05-17T11:20:01.955Z,51.22
2023-05-17T11:22:36.974Z,51.93
2023-05-17T11:25:08.544Z,53.17
2023-05-17T11:27:49.847Z,52.80
2023-05-17T11:30:18.282Z,53.82
2023-05-17T11:32:58.142Z,53.84
2023-05-17T11:35:27.425Z,54.46
2023-05-17T11:38:12.136Z,54.99
2023-05-17T11:40:39.977Z,53.56
2023-05-17T11:43:11.732Z,52.29
2023-05-17T11:45:57.606Z,53.82
2023-05-17T11:48:26.809Z,54.19
2023-05-17T11:50:56.381Z,54.40
2023-05-17T11:53:24.798Z,52.86
2023-05-17T11:55:52.592Z,53.04
2023-05-17T11:58:26.647Z,52.99
2023-05-17T12:00:58.454Z,51.75
2023-05-17T12:03:28.896Z,51.81
2023-05-17T12:06:02.039Z,50.94
2023-05-17T12:08:32.134Z,52.66
2023-05-17T12:10:58.829Z,51.87
2023-05-17T12:13:29.237Z,52.10
2023-05-17T12:16:02.181Z,52.00
2023-05-17T12:18:39.846Z,52.73
2023-05-17T12:21:08.841Z,51.87
2023-05-17T12:23:41.204Z,52.11
2023-05-17T12:26:10.914Z,52.05
2023-05-17T12:28:39.833Z,52.29
2023-05-17T12:31:14.897Z,51.83
2023-05-17T12:33:43.169Z,52.13
2023-05-17T12:36:12.104Z,52.07
2023-05-17T12:38:42.116Z,49.80
2023-05-17T12:41:13.963Z,51.42
2023-05-17T12:43:41.305Z,51.60
2023-05-17T12:46:20.473Z,51.44
2023-05-17T12:48:48.062Z,52.54
2023-05-17T12:51:22.101Z,51.25
2023-05-17T12:53:54.629Z,50.61
2023-05-17T12:56:23.417Z,51.79
2023-05-17T12:59:14.785Z,51.78
2023-05-17T13:01:45.750Z,52.56
2023-05-17T13:04:13.549Z,52.20
2023-05-17T13:06:48.321Z,53.17
2023-05-17T13:09:18.401Z,52.02
2023-05-17T13:11:52.241Z,52.17
2023-05-17T13:14:38.670Z,52.30
2023-05-17T13:17:07.139Z,52.45
2023-05-17T13:19:35.814Z,53.39
2023-05-17T13:22:03.932Z,52.85
2023-05-17T13:24:35.298Z,52.47
2023-05-17T13:27:02.487Z,52.44
2023-05-17T13:29:38.954Z,50.53
2023-05-17T13:32:09.117Z,51.90
2023-05-17T13:34:36.073Z,51.85
2023-05-17T13:37:02.649Z,51.54
2023-05-17T13:39:29.321Z,51.16
2023-05-17T13:41:55.815Z,51.34
2023-05-17T13:44:22.574Z,52.11
2023-05-17T13:46:49.077Z,49.89
2023-05-17T13:49:15.693Z,51.47
2023-05-17T13:51:42.952Z,49.78
2023-05-17T13:54:10.845Z,50.95
2023-05-17T13:56:37.682Z,50.47
2023-05-17T13:59:04.282Z,49.88
2023-05-17T14:01:30.994Z,49.56
2023-05-17T14:03:57.610Z,49.87
2023-05-17T14:06:24.833Z,50.81
2023-05-17T14:08:53.199Z,50.54
2023-05-17T14:11:21.579Z,51.05
2023-05-17T14:13:48.102Z,49.07
2023-05-17T14:16:14.874Z,50.84
2023-05-17T14:18:41.624Z,49.51
2023-05-17T14:21:08.656Z,49.30
2023-05-17T14:23:37.534Z,49.21
2023-05-17T14:26:07.614Z,48.23
2023-05-17T14:28:37.908Z,47.35
2023-05-17T14:31:09.424Z,46.55
2023-05-17T14:33:36.735Z,45.55
2023-05-17T14:36:04.123Z,47.12
2023-05-17T14:38:31.372Z,48.22
2023-05-17T14:40:59.048Z,47.58
2023-05-17T14:43:26.697Z,47.61
2023-05-17T14:45:53.202Z,49.08
2023-05-17T14:48:20.381Z,47.49
2023-05-17T14:50:46.970Z,47.33
2023-05-17T14:53:14.490Z,47.11
2023-05-17T14:55:41.805Z,47.88
2023-05-17T14:58:08.295Z,47.37
2023-05-17T15:00:34.930Z,45.96
2023-05-17T15:03:01.754Z,49.37
2023-05-17T15:05:29.002Z,45.80
2023-05-17T15:07:55.727Z,46.31
2023-05-17T15:10:22.944Z,46.72
2023-05-17T15:12:49.851Z,45.69
2023-05-17T15:15:16.635Z,46.23
2023-05-17T15:17:43.182Z,47.47
2023-05-17T15:20:10.745Z,46.17
2023-05-17T15:22:37.617Z,46.13
2023-05-17T15:25:06.130Z,47.39
2023-05-17T15:27:32.759Z,47.86
2023-05-17T15:29:59.285Z,47.45
2023-05-17T15:32:26.649Z,47.80
2023-05-17T15:34:53.190Z,48.71
2023-05-17T15:37:19.724Z,49.22
2023-05-17T15:39:47.698Z,48.51
2023-05-17T15:42:14.222Z,48.45
2023-05-17T15:44:40.712Z,47.16
2023-05-17T15:47:07.230Z,47.00
2023-05-17T15:49:34.147Z,48.63
2023-05-17T15:52:00.762Z,47.85
2023-05-17T15:54:27.388Z,49.70
2023-05-17T15:56:53.955Z,48.30
2023-05-17T15:59:20.633Z,48.09
2023-05-17T16:01:47.139Z,48.37
2023-05-17T16:04:13.822Z,47.32
2023-05-17T16:06:41.225Z,46.91
2023-05-17T16:09:07.938Z,47.04
2023-05-17T16:11:34.598Z,47.21
2023-05-17T16:14:01.191Z,46.89
2023-05-17T16:16:27.739Z,46.97
2023-05-17T16:18:54.357Z,47.56
2023-05-17T16:21:21.066Z,46.76
2023-05-17T16:23:47.675Z,47.71
2023-05-17T16:26:14.619Z,47.59
2023-05-17T16:28:41.287Z,47.00
2023-05-17T16:31:09.356Z,48.02
2023-05-17T16:33:38.270Z,46.89
2023-05-17T16:36:08.806Z,46.29
2023-05-17T16:38:39.448Z,46.90
2023-05-17T16:41:06.104Z,46.72
2023-05-17T16:43:32.717Z,46.92
2023-05-17T16:45:59.334Z,46.21
2023-05-17T16:48:26.019Z,46.65
2023-05-17T16:50:52.586Z,46.68
2023-05-17T16:53:19.203Z,46.48
2023-05-17T16:55:45.816Z,48.04
2023-05-17T16:58:13.075Z,47.34
2023-05-17T17:00:39.636Z,47.94
2023-05-17T17:03:09.219Z,48.25
2023-05-17T17:05:36.597Z,48.31
2023-05-17T17:08:03.302Z,49.34
2023-05-17T17:10:30.053Z,48.54
2023-05-17T17:12:57.209Z,48.51
2023-05-17T17:15:23.807Z,48.80
2023-05-17T17:17:50.464Z,48.28
2023-05-17T17:20:17.738Z,50.97
2023-05-17T17:22:44.349Z,50.92
2023-05-17T17:25:11.178Z,52.28
2023-05-17T17:27:37.864Z,53.29
2023-05-17T17:30:05.204Z,52.61
2023-05-17T17:32:32.044Z,54.34
2023-05-17T17:34:58.786Z,55.23
2023-05-17T17:37:25.351Z,54.16
2023-05-17T17:39:51.938Z,55.21
2023-05-17T17:42:19.425Z,55.38
2023-05-17T17:44:46.969Z,54.81
2023-05-17T17:47:14.064Z,56.01
2023-05-17T17:49:52.964Z,57.49
2023-05-17T17:52:19.444Z,56.88
2023-05-17T17:54:46.273Z,58.12
2023-05-17T17:57:12.947Z,56.43
2023-05-17T17:59:39.470Z,59.21
2023-05-17T18:02:05.970Z,58.85
2023-05-17T18:04:32.530Z,59.27
2023-05-17T18:07:05.262Z,59.55
2023-05-17T18:09:31.822Z,59.30
2023-05-17T18:11:59.614Z,59.91
2023-05-17T18:14:26.530Z,60.24
2023-05-17T18:16:53.135Z,60.69
2023-05-17T18:19:19.861Z,60.17
2023-05-17T18:21:46.566Z,61.01
2023-05-17T18:24:13.158Z,61.14
2023-05-17T18:26:39.644Z,61.95
2023-05-17T18:29:06.241Z,62.33
2023-05-17T18:31:32.780Z,62.30
2023-05-17T18:33:59.293Z,63.14
2023-05-17T18:36:25.849Z,64.92
2023-05-17T18:38:52.498Z,63.23
2023-05-17T18:41:19.016Z,63.73
2023-05-17T18:43:45.714Z,64.62
2023-05-17T18:46:13.106Z,68.14
2023-05-17T18:48:40.820Z,69.40
2023-05-17T18:51:07.514Z,68.16
2023-05-17T18:53:35.991Z,68.24
2023-05-17T18:56:02.705Z,69.99
2023-05-17T18:58:29.907Z,68.46
2023-05-17T19:00:56.577Z,69.88
2023-05-17T19:03:23.158Z,70.49
2023-05-17T19:05:49.683Z,70.71
2023-05-17T19:08:16.298Z,68.78
2023-05-17T19:10:42.818Z,70.13
2023-05-17T19:13:09.746Z,70.91
2023-05-17T19:15:36.317Z,70.20
2023-05-17T19:18:02.911Z,73.00
2023-05-17T19:20:29.766Z,71.95
2023-05-17T19:22:56.486Z,72.45
2023-05-17T19:25:23.097Z,72.21
2023-05-17T19:27:49.964Z,72.71
2023-05-17T19:30:16.515Z,74.82
2023-05-17T19:32:43.171Z,73.38
2023-05-17T19:35:10.853Z,73.72
2023-05-17T19:37:37.479Z,73.73
2023-05-17T19:40:07.089Z,72.44
2023-05-17T19:42:33.739Z,74.99
2023-05-17T19:45:00.342Z,74.92
2023-05-17T19:47:27.020Z,74.76
2023-05-17T19:49:53.560Z,71.01
2023-05-17T19:52:20.038Z,71.63
2023-05-17T19:54:46.655Z,69.42
2023-05-17T19:57:13.138Z,69.22
2023-05-17T19:59:39.998Z,67.53
2023-05-17T20:02:06.809Z,67.10
2023-05-17T20:04:33.462Z,66.66
2023-05-17T20:06:59.966Z,68.21
2023-05-17T20:09:30.193Z,70.56
2023-05-17T20:11:57.545Z,71.77
2023-05-17T20:14:24.311Z,71.73
2023-05-17T20:16:51.102Z,73.98
2023-05-17T20:19:17.761Z,71.48
2023-05-17T20:21:44.602Z,75.50
2023-05-17T20:24:11.248Z,78.00
2023-05-17T20:26:37.929Z,78.69
2023-05-17T20:29:07.160Z,75.01
2023-05-17T20:31:35.063Z,72.62
2023-05-17T20:34:03.479Z,68.98
2023-05-17T20:36:30.196Z,67.33
2023-05-17T20:38:57.797Z,70.03
2023-05-17T20:41:24.380Z,70.35
2023-05-17T20:43:51.720Z,73.37
2023-05-17T20:46:18.438Z,74.27
2023-05-17T20:48:47.668Z,73.85
2023-05-17T20:51:17.657Z,72.23
2023-05-17T20:53:44.848Z,73.42
2023-05-17T20:56:11.345Z,74.17
2023-05-17T20:58:37.978Z,76.44
2023-05-17T21:01:05.788Z,76.19
2023-05-17T21:03:34.114Z,74.13
2023-05-17T21:06:01.713Z,75.97
2023-05-17T21:08:28.485Z,78.65
2023-05-17T21:10:55.717Z,79.37
2023-05-17T21:13:23.915Z,77.21
2023-05-17T21:15:50.460Z,79.36
2023-05-17T21:18:16.969Z,79.29
2023-05-17T21:20:43.589Z,81.13
2023-05-17T21:23:10.088Z,82.28
2023-05-17T21:25:38.655Z,81.29
2023-05-17T21:28:05.874Z,82.66
2023-05-17T21:30:33.508Z,82.99
2023-05-17T21:33:00.210Z,83.47
2023-05-17T21:35:26.900Z,81.61
2023-05-17T21:37:53.468Z,80.51
2023-05-17T21:40:20.049Z,80.00
2023-05-17T21:42:47.863Z,80.15
2023-05-17T21:45:16.603Z,84.11
2023-05-17T21:47:43.122Z,79.69
2023-05-17T21:50:11.288Z,81.95
2023-05-17T21:52:37.849Z,82.73
2023-05-17T21:55:05.075Z,82.31
2023-05-17T21:57:35.934Z,85.02
2023-05-17T22:00:04.674Z,85.16
2023-05-17T22:02:31.279Z,86.29
2023-05-17T22:04:57.849Z,88.73
2023-05-17T22:07:24.487Z,88.27
2023-05-17T22:09:51.260Z,89.02
2023-05-17T22:12:25.105Z,90.91
2023-05-17T22:14:58.639Z,89.12
2023-05-17T22:17:39.344Z,88.37
2023-05-17T22:20:14.013Z,86.50
2023-05-17T22:22:40.569Z,89.19
2023-05-17T22:25:07.759Z,90.27
2023-05-17T22:27:34.364Z,93.71
2023-05-17T22:30:01.174Z,92.74
2023-05-17T22:32:27.997Z,93.04
2023-05-17T22:34:56.166Z,92.98
2023-05-17T22:37:23.635Z,93.59
2023-05-17T22:39:50.414Z,94.71
2023-05-17T22:42:17.101Z,92.64
2023-05-17T22:44:43.596Z,91.96
2023-05-17T22:47:14.853Z,91.80
2023-05-17T22:49:42.160Z,92.61
2023-05-17T22:52:10.987Z,92.19
2023-05-17T22:54:38.400Z,92.83
2023-05-17T22:57:05.556Z,92.06
2023-05-17T22:59:33.180Z,93.90
2023-05-17T23:02:02.325Z,96.52
2023-05-17T23:04:30.164Z,99.18
2023-05-17T23:07:04.102Z,96.76
2023-05-17T23:09:31.271Z,96.18
2023-05-17T23:12:00.361Z,95.47
2023-05-17T23:14:27.117Z,97.65
2023-05-17T23:16:53.749Z,97.39
2023-05-17T23:19:21.154Z,95.71
2023-05-17T23:21:49.005Z,96.51
2023-05-17T23:24:15.591Z,94.80
2023-05-17T23:26:42.114Z,96.61
2023-05-17T23:29:10.629Z,97.59
2023-05-17T23:31:37.706Z,99.23
2023-05-17T23:34:04.484Z,97.62
2023-05-17T23:36:30.985Z,96.40
2023-05-17T23:38:57.453Z,96.08
2023-05-17T23:41:25.408Z,97.60
2023-05-17T23:43:56.896Z,98.11
2023-05-17T23:46:24.721Z,98.37
2023-05-17T23:48:51.353Z,97.54
2023-05-17T23:51:20.927Z,97.87
2023-05-17T23:53:50.614Z,100.00
2023-05-17T23:56:18.197Z,100.00
2023-05-17T23:58:47.798Z,100.00
